Time;durP1;ratioP1;P1;durP2;ratioP2;P2;SDS_P1;SDS_P2;PMS_P1;PMS_P2;Temp;Humidity;BMP_temperature;BMP_pressure;BME280_temperature;BME280_humidity;BME280_pressure;Samples;Min_cycle;Max_cycle;Signal;HPM_P1;HPM_P2
2023/03/04 00:01:34;;;;;;;65.93;33.83;;;2.70;1.00;;;;;;5077397;28;20465;-60
2023/03/04 00:04:01;;;;;;;30.97;19.17;;;2.60;1.00;;;;;;5077314;28;20460;-60
2023/03/04 00:06:30;;;;;;;33.93;20.63;;;2.60;1.00;;;;;;5080796;28;20472;-56
2023/03/04 00:08:57;;;;;;;29.93;16.73;;;2.80;1.00;;;;;;5081031;28;20457;-57
2023/03/04 00:11:24;;;;;;;27.10;17.67;;;2.80;1.00;;;;;;5080243;28;20465;-57
2023/03/04 00:13:52;;;;;;;25.40;17.00;;;2.90;1.00;;;;;;5081224;28;20493;-58
2023/03/04 00:16:19;;;;;;;41.43;24.27;;;3.00;1.00;;;;;;5080278;28;20465;-57
2023/03/04 00:18:46;;;;;;;37.57;22.93;;;3.00;1.00;;;;;;5080207;28;20497;-58
2023/03/04 00:21:13;;;;;;;33.77;24.37;;;3.00;1.00;;;;;;5080758;28;20468;-58
2023/03/04 00:23:42;;;;;;;30.17;20.20;;;3.00;1.00;;;;;;5080715;28;20461;-56
2023/03/04 00:26:09;;;;;;;47.53;18.90;;;3.00;1.00;;;;;;5080412;28;20733;-56
2023/03/04 00:28:38;;;;;;;18.17;14.73;;;3.10;1.00;;;;;;5080230;28;20464;-58
2023/03/04 00:31:05;;;;;;;20.53;16.00;;;3.10;1.00;;;;;;5080608;28;20518;-59
2023/03/04 00:33:32;;;;;;;18.43;14.00;;;3.10;1.00;;;;;;5080467;28;20461;-57
2023/03/04 00:35:59;;;;;;;19.47;14.90;;;3.20;1.00;;;;;;5080169;28;20483;-54
2023/03/04 00:38:26;;;;;;;21.57;15.00;;;3.20;1.00;;;;;;5080186;28;20468;-58
2023/03/04 00:40:55;;;;;;;19.00;13.27;;;3.20;1.00;;;;;;5079606;28;20461;-56
2023/03/04 00:43:22;;;;;;;17.13;13.30;;;3.30;1.00;;;;;;5079984;28;20453;-56
2023/03/04 00:45:49;;;;;;;20.33;14.03;;;3.30;1.00;;;;;;5079825;28;20870;-59
2023/03/04 00:48:17;;;;;;;22.97;13.53;;;3.30;1.00;;;;;;5079339;28;20457;-56
2023/03/04 00:50:44;;;;;;;24.57;14.33;;;3.30;1.00;;;;;;5079430;28;20465;-54
2023/03/04 00:53:11;;;;;;;18.83;13.27;;;3.30;1.00;;;;;;5079766;28;20465;-54
2023/03/04 00:55:38;;;;;;;17.70;13.77;;;3.30;1.00;;;;;;5078614;28;20465;-59
2023/03/04 00:58:07;;;;;;;23.23;13.77;;;3.30;1.00;;;;;;5079536;28;20874;-59
2023/03/04 01:00:34;;;;;;;19.20;12.97;;;3.30;1.00;;;;;;5079082;28;20568;-57
2023/03/04 01:03:01;;;;;;;20.30;14.40;;;3.30;1.00;;;;;;5079325;28;20484;-58
2023/03/04 01:05:28;;;;;;;19.07;14.13;;;3.30;1.00;;;;;;5079861;28;20454;-57
2023/03/04 01:07:55;;;;;;;21.60;14.40;;;3.30;1.00;;;;;;5079534;28;20461;-58
2023/03/04 01:10:22;;;;;;;24.53;14.33;;;3.40;1.00;;;;;;5079344;28;20480;-60
2023/03/04 01:12:49;;;;;;;22.27;13.63;;;3.40;1.00;;;;;;5079223;28;20912;-56
2023/03/04 01:15:18;;;;;;;21.17;13.23;;;3.40;1.00;;;;;;5079261;28;20461;-58
2023/03/04 01:17:45;;;;;;;29.80;14.27;;;3.30;1.00;;;;;;5078821;28;20788;-57
2023/03/04 01:20:13;;;;;;;27.20;16.47;;;3.40;1.00;;;;;;5078832;28;20550;-59
2023/03/04 01:22:40;;;;;;;28.17;15.60;;;3.40;1.00;;;;;;5079023;28;20780;-55
2023/03/04 01:25:09;;;;;;;33.60;17.67;;;3.40;1.00;;;;;;5079280;28;20464;-57
2023/03/04 01:27:36;;;;;;;33.53;16.60;;;3.40;1.00;;;;;;5079057;28;20448;-57
2023/03/04 01:30:05;;;;;;;27.93;16.60;;;3.40;1.00;;;;;;5078739;28;20901;-60
2023/03/04 01:32:34;;;;;;;29.03;16.43;;;3.40;1.00;;;;;;5078443;28;20468;-57
2023/03/04 01:35:01;;;;;;;26.00;16.23;;;3.40;1.00;;;;;;5078912;28;20540;-58
2023/03/04 01:37:29;;;;;;;28.17;16.73;;;3.40;1.00;;;;;;5079086;28;20736;-59
2023/03/04 01:39:56;;;;;;;23.70;15.60;;;3.40;1.00;;;;;;5078790;28;20753;-54
2023/03/04 01:42:26;;;;;;;36.57;14.73;;;3.40;1.00;;;;;;5078180;28;20963;-57
2023/03/04 01:44:53;;;;;;;30.47;15.50;;;3.40;1.00;;;;;;5078812;28;20469;-56
2023/03/04 01:47:24;;;;;;;34.80;14.40;;;3.40;1.00;;;;;;5078779;28;20742;-57
2023/03/04 01:49:55;;;;;;;24.73;15.03;;;3.40;1.00;;;;;;5078485;28;20453;-57
2023/03/04 01:52:22;;;;;;;28.53;14.80;;;3.50;1.00;;;;;;5078736;28;20461;-59
2023/03/04 01:54:50;;;;;;;27.63;12.67;;;3.40;1.00;;;;;;5076663;28;20473;-56
2023/03/04 01:57:19;;;;;;;32.23;14.93;;;3.40;1.00;;;;;;5077394;28;20477;-60
2023/03/04 01:59:47;;;;;;;27.20;13.40;;;3.40;1.00;;;;;;5074717;28;20504;-57
2023/03/04 02:02:17;;;;;;;26.10;12.30;;;3.40;1.00;;;;;;5074378;28;20788;-58
2023/03/04 02:04:44;;;;;;;18.90;11.93;;;3.50;1.00;;;;;;5076386;28;20461;-59
2023/03/04 02:07:13;;;;;;;27.57;12.30;;;3.50;1.00;;;;;;5075931;28;20470;-58
2023/03/04 02:09:40;;;;;;;21.33;10.83;;;3.40;1.00;;;;;;5076588;28;20759;-58
2023/03/04 02:12:07;;;;;;;14.90;10.53;;;3.40;1.00;;;;;;5077105;28;20471;-55
2023/03/04 02:14:34;;;;;;;20.03;11.37;;;3.40;1.00;;;;;;5074405;28;20474;-59
2023/03/04 02:17:01;;;;;;;26.60;14.13;;;3.50;1.00;;;;;;5074795;28;20497;-59
2023/03/04 02:19:41;;;;;;;21.83;11.87;;;3.40;1.00;;;;;;5077484;28;20944;-57
2023/03/04 02:22:09;;;;;;;25.70;10.63;;;3.50;1.00;;;;;;5077103;28;20476;-60
2023/03/04 02:24:41;;;;;;;17.63;10.37;;;3.40;1.00;;;;;;5076698;28;20465;-57
2023/03/04 02:27:10;;;;;;;19.07;10.70;;;3.50;1.00;;;;;;5077323;28;20461;-58
2023/03/04 02:29:37;;;;;;;27.93;11.83;;;3.40;1.00;;;;;;5076863;28;20464;-58
2023/03/04 02:32:04;;;;;;;20.47;10.70;;;3.40;1.00;;;;;;5076806;28;20772;-55
2023/03/04 02:34:35;;;;;;;25.47;10.40;;;3.50;1.00;;;;;;5076413;28;20465;-59
2023/03/04 02:37:03;;;;;;;22.70;9.97;;;3.50;1.00;;;;;;5077849;28;20453;-58
2023/03/04 02:39:33;;;;;;;19.63;10.87;;;3.50;1.00;;;;;;5075478;28;20492;-57
2023/03/04 02:42:02;;;;;;;22.97;11.23;;;3.50;1.00;;;;;;5077312;28;20462;-58
2023/03/04 02:44:33;;;;;;;17.93;10.87;;;3.50;1.00;;;;;;5074548;28;20477;-58
2023/03/04 02:47:01;;;;;;;20.10;11.07;;;3.40;1.00;;;;;;5077308;28;20815;-59
2023/03/04 02:49:30;;;;;;;23.63;11.70;;;3.50;1.00;;;;;;5077431;28;20874;-56
2023/03/04 02:52:01;;;;;;;26.77;10.77;;;3.50;1.00;;;;;;5077547;28;20488;-57
2023/03/04 02:54:28;;;;;;;27.23;10.73;;;3.50;1.00;;;;;;5077819;28;20483;-55
2023/03/04 02:56:58;;;;;;;20.57;9.73;;;3.50;1.00;;;;;;5077022;28;20468;-59
2023/03/04 02:59:25;;;;;;;18.73;9.57;;;3.50;1.00;;;;;;5076930;28;20933;-55
2023/03/04 03:01:54;;;;;;;23.83;9.10;;;3.50;1.00;;;;;;5076506;28;20476;-58
2023/03/04 03:04:22;;;;;;;21.20;8.67;;;3.50;1.00;;;;;;5076128;28;20469;-59
2023/03/04 03:06:50;;;;;;;14.50;8.57;;;3.50;1.00;;;;;;5076072;28;20489;-58
2023/03/04 03:09:17;;;;;;;18.20;8.37;;;3.50;1.00;;;;;;5076585;28;20771;-58
2023/03/04 03:11:44;;;;;;;17.20;8.27;;;3.50;1.00;;;;;;5075732;28;20959;-59
2023/03/04 03:14:11;;;;;;;21.63;8.90;;;3.50;1.00;;;;;;5076150;28;20457;-55
2023/03/04 03:16:38;;;;;;;20.90;9.60;;;3.60;1.00;;;;;;5076826;28;20778;-53
2023/03/04 03:19:07;;;;;;;22.77;7.93;;;3.50;1.00;;;;;;5076902;28;20472;-58
2023/03/04 03:21:34;;;;;;;15.17;7.80;;;3.50;1.00;;;;;;5077346;28;20874;-58
2023/03/04 03:24:01;;;;;;;15.93;7.80;;;3.50;1.00;;;;;;5076130;28;20473;-57
2023/03/04 03:26:28;;;;;;;17.40;8.03;;;3.60;1.00;;;;;;5077190;28;20874;-57
2023/03/04 03:28:55;;;;;;;16.60;7.97;;;3.50;1.00;;;;;;5072965;28;20465;-58
2023/03/04 03:31:22;;;;;;;17.57;8.87;;;3.50;1.00;;;;;;5076727;28;20454;-56
2023/03/04 03:33:49;;;;;;;22.57;9.53;;;3.50;1.00;;;;;;5076102;28;20480;-57
2023/03/04 03:36:18;;;;;;;22.90;10.50;;;3.50;1.00;;;;;;5074901;28;20993;-56
2023/03/04 03:38:45;;;;;;;17.27;9.17;;;3.50;1.00;;;;;;5076860;28;20469;-57
2023/03/04 03:41:12;;;;;;;20.17;9.60;;;3.50;1.00;;;;;;5079591;28;20492;-58
2023/03/04 03:43:39;;;;;;;16.80;8.27;;;3.50;1.00;;;;;;5080981;28;20461;-59
2023/03/04 03:46:06;;;;;;;22.03;9.60;;;3.50;1.00;;;;;;5080492;28;20466;-56
2023/03/04 03:48:33;;;;;;;20.40;10.17;;;3.50;1.00;;;;;;5080643;28;20468;-57
2023/03/04 03:51:00;;;;;;;23.00;10.37;;;3.50;1.00;;;;;;5081001;28;20858;-56
2023/03/04 03:53:29;;;;;;;18.27;9.53;;;3.50;1.00;;;;;;5078881;28;20480;-60
2023/03/04 03:55:57;;;;;;;15.63;8.97;;;3.50;1.00;;;;;;5078914;28;20465;-56
2023/03/04 03:58:25;;;;;;;19.23;8.60;;;3.50;1.00;;;;;;5080597;28;20501;-58
2023/03/04 04:00:52;;;;;;;16.57;9.17;;;3.50;1.00;;;;;;5078521;28;20485;-56
2023/03/04 04:03:20;;;;;;;18.20;10.03;;;3.50;1.00;;;;;;5078881;28;20898;-58
2023/03/04 04:05:47;;;;;;;23.07;9.53;;;3.50;1.00;;;;;;5081037;28;20480;-59
2023/03/04 04:08:15;;;;;;;23.93;9.90;;;3.50;1.00;;;;;;5080499;28;20462;-57
2023/03/04 04:10:44;;;;;;;17.80;9.77;;;3.50;1.00;;;;;;5080103;28;20456;-56
2023/03/04 04:13:11;;;;;;;20.13;8.47;;;3.60;1.00;;;;;;5080416;28;20471;-59
2023/03/04 04:15:39;;;;;;;18.00;8.70;;;3.50;1.00;;;;;;5074788;28;20782;-59
2023/03/04 04:18:06;;;;;;;17.93;8.60;;;3.50;1.00;;;;;;5079090;28;20493;-59
2023/03/04 04:20:34;;;;;;;23.20;9.83;;;3.50;1.00;;;;;;5080040;28;20952;-59
2023/03/04 04:23:01;;;;;;;13.43;9.00;;;3.50;1.00;;;;;;5080277;28;20461;-58
2023/03/04 04:25:28;;;;;;;19.10;9.13;;;3.50;1.00;;;;;;5080169;28;20519;-58
2023/03/04 04:27:57;;;;;;;21.80;9.70;;;3.50;1.00;;;;;;5080231;28;20904;-56
2023/03/04 04:30:24;;;;;;;22.40;9.97;;;3.50;1.00;;;;;;5077456;28;20469;-56
2023/03/04 04:32:51;;;;;;;21.07;8.33;;;3.50;1.00;;;;;;5078809;28;20460;-59
2023/03/04 04:35:19;;;;;;;23.67;8.63;;;3.50;1.00;;;;;;5079287;28;20479;-59
2023/03/04 04:37:46;;;;;;;20.97;8.00;;;3.50;1.00;;;;;;5079841;28;20918;-57
2023/03/04 04:40:14;;;;;;;25.50;9.40;;;3.50;1.00;;;;;;5079465;28;20603;-59
2023/03/04 04:42:41;;;;;;;15.20;7.43;;;3.50;1.00;;;;;;5078437;28;20457;-59
2023/03/04 04:45:11;;;;;;;17.63;7.83;;;3.50;1.00;;;;;;5078126;28;20469;-58
2023/03/04 04:47:38;;;;;;;22.27;6.87;;;3.50;1.00;;;;;;5078554;28;20469;-56
2023/03/04 04:50:06;;;;;;;17.50;7.30;;;3.60;1.00;;;;;;5077439;28;20465;-59
2023/03/04 04:52:33;;;;;;;15.43;6.20;;;3.60;1.00;;;;;;5077897;28;20480;-59
2023/03/04 04:55:01;;;;;;;15.00;7.50;;;3.60;1.00;;;;;;5077725;28;20465;-56
2023/03/04 04:57:28;;;;;;;14.80;6.17;;;3.50;1.00;;;;;;5078685;28;20505;-58
2023/03/04 04:59:55;;;;;;;30.93;8.57;;;3.50;1.00;;;;;;5077123;28;20512;-59
2023/03/04 05:02:23;;;;;;;19.60;6.70;;;3.50;1.00;;;;;;5079356;28;20465;-57
2023/03/04 05:04:50;;;;;;;13.67;6.77;;;3.50;1.00;;;;;;5078493;28;20783;-53
2023/03/04 05:07:17;;;;;;;13.10;5.20;;;3.50;1.00;;;;;;5079613;28;20795;-55
2023/03/04 05:09:44;;;;;;;13.00;5.37;;;3.50;1.00;;;;;;5060397;28;20474;-57
2023/03/04 05:12:12;;;;;;;20.60;8.33;;;3.50;1.00;;;;;;5058948;28;20469;-57
2023/03/04 05:14:39;;;;;;;14.70;5.30;;;3.50;1.00;;;;;;5071416;28;20748;-55
2023/03/04 05:17:06;;;;;;;9.80;4.90;;;3.50;1.00;;;;;;5077823;28;20801;-56
2023/03/04 05:19:35;;;;;;;14.73;6.20;;;3.50;1.00;;;;;;5078833;28;20465;-55
2023/03/04 05:22:02;;;;;;;14.93;5.90;;;3.50;1.00;;;;;;5078451;28;20485;-59
2023/03/04 05:24:29;;;;;;;13.30;6.87;;;3.50;1.00;;;;;;5079081;28;20462;-60
2023/03/04 05:26:56;;;;;;;12.73;5.60;;;3.50;1.00;;;;;;5078500;28;20468;-57
2023/03/04 05:29:23;;;;;;;10.60;5.50;;;3.50;1.00;;;;;;5078922;28;20468;-58
2023/03/04 05:31:50;;;;;;;11.90;5.80;;;3.50;1.00;;;;;;5078975;28;20469;-58
2023/03/04 05:34:17;;;;;;;11.70;5.50;;;3.60;1.00;;;;;;5078644;28;20465;-58
2023/03/04 05:36:46;;;;;;;15.93;6.30;;;3.50;1.00;;;;;;5077054;28;20473;-55
2023/03/04 05:39:13;;;;;;;16.60;6.67;;;3.60;1.00;;;;;;5078740;28;20461;-60
2023/03/04 05:41:40;;;;;;;14.03;5.57;;;3.50;1.00;;;;;;5077603;28;20493;-60
2023/03/04 05:44:07;;;;;;;17.03;6.17;;;3.50;1.00;;;;;;5063115;28;20458;-56
2023/03/04 05:46:34;;;;;;;17.87;5.93;;;3.50;1.00;;;;;;5075673;28;20472;-59
2023/03/04 05:49:01;;;;;;;12.90;5.77;;;3.50;1.00;;;;;;5077335;28;20472;-57
2023/03/04 05:51:28;;;;;;;22.00;6.67;;;3.50;1.00;;;;;;5078394;28;20453;-57
2023/03/04 05:53:57;;;;;;;8.00;5.20;;;3.50;1.00;;;;;;5076937;28;20465;-55
2023/03/04 05:56:24;;;;;;;15.63;6.00;;;3.60;1.00;;;;;;5076144;28;20469;-59
2023/03/04 05:58:51;;;;;;;10.23;5.93;;;3.60;1.00;;;;;;5077361;28;20453;-57
2023/03/04 06:01:18;;;;;;;13.70;5.80;;;3.60;1.00;;;;;;5075600;28;20500;-56
2023/03/04 06:03:47;;;;;;;11.20;5.90;;;3.50;1.00;;;;;;5076411;28;20467;-56
2023/03/04 06:06:14;;;;;;;11.90;5.30;;;3.60;1.00;;;;;;5077045;28;20465;-58
2023/03/04 06:08:41;;;;;;;12.53;5.53;;;3.60;1.00;;;;;;5077898;28;20751;-59
2023/03/04 06:11:10;;;;;;;9.90;4.60;;;3.60;1.00;;;;;;5077047;28;20457;-59
2023/03/04 06:13:37;;;;;;;13.10;4.83;;;3.60;1.00;;;;;;5078009;28;20911;-60
2023/03/04 06:16:05;;;;;;;11.17;4.53;;;3.50;1.00;;;;;;5073689;28;20473;-55
2023/03/04 06:18:32;;;;;;;8.80;4.50;;;3.60;1.00;;;;;;5077281;28;20485;-59
2023/03/04 06:21:00;;;;;;;11.93;5.30;;;3.60;1.00;;;;;;5076543;28;20791;-54
2023/03/04 06:23:28;;;;;;;8.97;4.80;;;3.60;1.00;;;;;;5077960;28;20461;-60
2023/03/04 06:25:58;;;;;;;11.10;4.73;;;3.60;1.00;;;;;;5077272;28;20462;-54
2023/03/04 06:28:27;;;;;;;16.97;5.10;;;3.60;1.00;;;;;;5077446;28;20462;-59
2023/03/04 06:30:56;;;;;;;9.80;5.27;;;3.60;1.00;;;;;;5077768;28;20457;-58
2023/03/04 06:33:23;;;;;;;12.33;5.23;;;3.70;1.00;;;;;;5077804;28;20461;-59
2023/03/04 06:35:54;;;;;;;10.00;4.77;;;3.70;1.00;;;;;;5075268;28;20462;-60
2023/03/04 06:38:21;;;;;;;10.47;5.20;;;3.70;1.00;;;;;;5077276;28;20461;-59
2023/03/04 06:40:48;;;;;;;13.00;5.67;;;3.70;1.00;;;;;;5076236;28;20493;-59
2023/03/04 06:43:15;;;;;;;12.83;6.23;;;3.70;1.00;;;;;;5077546;28;20465;-58
2023/03/04 06:45:44;;;;;;;8.60;4.73;;;3.80;1.00;;;;;;5076231;28;20465;-55
2023/03/04 06:48:12;;;;;;;11.53;4.73;;;3.70;1.00;;;;;;5077141;28;20768;-58
2023/03/04 06:50:40;;;;;;;9.03;4.57;;;3.80;1.00;;;;;;5075502;28;20784;-62
2023/03/04 06:53:07;;;;;;;9.07;4.10;;;3.80;1.00;;;;;;5075366;28;20464;-62
2023/03/04 06:55:34;;;;;;;14.07;4.60;;;3.80;1.00;;;;;;5077530;28;20461;-61
2023/03/04 06:58:01;;;;;;;16.47;5.00;;;3.70;1.00;;;;;;5077420;28;20462;-60
2023/03/04 07:00:28;;;;;;;13.00;4.43;;;3.70;1.00;;;;;;5074282;28;20489;-60
2023/03/04 07:02:58;;;;;;;8.33;4.70;;;3.70;1.00;;;;;;5076186;28;20776;-61
2023/03/04 07:05:25;;;;;;;12.23;4.47;;;3.80;1.00;;;;;;5077281;28;20461;-61
2023/03/04 07:07:52;;;;;;;16.93;5.27;;;3.80;1.00;;;;;;5077390;28;20465;-62
2023/03/04 07:10:20;;;;;;;18.53;5.03;;;3.80;1.00;;;;;;5058800;28;20462;-59
2023/03/04 07:12:47;;;;;;;19.30;5.20;;;3.80;1.00;;;;;;5062505;28;20476;-62
2023/03/04 07:15:14;;;;;;;15.33;4.97;;;3.90;1.00;;;;;;5075481;28;20480;-62
2023/03/04 07:17:42;;;;;;;12.57;5.33;;;3.90;1.00;;;;;;5075481;28;20583;-61
2023/03/04 07:20:11;;;;;;;12.40;4.70;;;3.80;1.00;;;;;;5073543;28;20466;-62
2023/03/04 07:22:38;;;;;;;9.60;4.90;;;3.80;1.00;;;;;;5076777;28;20497;-62
2023/03/04 07:25:06;;;;;;;13.03;5.20;;;3.80;1.00;;;;;;5075563;28;20496;-62
2023/03/04 07:27:34;;;;;;;9.10;4.60;;;3.90;1.00;;;;;;5077115;28;20466;-62
2023/03/04 07:30:01;;;;;;;18.70;4.93;;;3.90;1.00;;;;;;5076403;28;20465;-61
2023/03/04 07:32:28;;;;;;;8.87;4.60;;;3.90;1.00;;;;;;5075371;28;20469;-62
2023/03/04 07:34:55;;;;;;;9.93;4.23;;;3.90;1.00;;;;;;5076652;28;20480;-62
2023/03/04 07:37:23;;;;;;;5.87;3.73;;;3.90;1.00;;;;;;5077342;28;20878;-62
2023/03/04 07:39:50;;;;;;;27.80;6.70;;;3.90;1.00;;;;;;5076699;28;20461;-62
2023/03/04 07:42:17;;;;;;;9.77;4.27;;;3.90;1.00;;;;;;5077266;28;20489;-59
2023/03/04 07:44:44;;;;;;;10.63;4.23;;;4.00;1.00;;;;;;5076836;28;20461;-62
2023/03/04 07:47:11;;;;;;;12.23;3.67;;;4.00;1.00;;;;;;5075436;28;20488;-62
2023/03/04 07:49:39;;;;;;;12.27;4.23;;;4.10;1.00;;;;;;5070466;28;20469;-62
2023/03/04 07:52:07;;;;;;;12.20;4.90;;;4.00;1.00;;;;;;5075544;28;20773;-60
2023/03/04 07:54:36;;;;;;;11.50;3.90;;;4.00;1.00;;;;;;5076151;28;20479;-61
2023/03/04 07:57:03;;;;;;;8.70;4.17;;;4.10;1.00;;;;;;5076548;28;20778;-62
2023/03/04 07:59:30;;;;;;;13.60;4.33;;;4.10;1.00;;;;;;5076926;28;20469;-60
2023/03/04 08:01:58;;;;;;;5.73;3.13;;;4.00;1.00;;;;;;5076232;28;20490;-61
2023/03/04 08:04:25;;;;;;;13.23;4.77;;;4.10;1.00;;;;;;5071300;28;20481;-62
2023/03/04 08:06:52;;;;;;;8.60;3.97;;;4.00;1.00;;;;;;5073597;28;20473;-62
2023/03/04 08:09:19;;;;;;;9.93;3.83;;;4.10;1.00;;;;;;5075800;28;20449;-61
2023/03/04 08:11:47;;;;;;;11.90;4.10;;;4.20;1.00;;;;;;5076973;28;20739;-62
2023/03/04 08:14:14;;;;;;;11.37;3.70;;;4.10;1.00;;;;;;5076703;28;20475;-62
2023/03/04 08:16:42;;;;;;;9.23;3.97;;;4.30;1.00;;;;;;5075768;28;20460;-62
2023/03/04 08:19:11;;;;;;;8.37;3.97;;;4.30;1.00;;;;;;5076280;28;20476;-62
2023/03/04 08:21:38;;;;;;;9.63;3.90;;;4.30;1.00;;;;;;5075303;28;20496;-61
2023/03/04 08:24:06;;;;;;;9.50;3.87;;;4.30;1.00;;;;;;5076334;28;20436;-61
2023/03/04 08:26:40;;;;;;;8.97;3.97;;;4.20;1.00;;;;;;5078929;28;20457;-62
2023/03/04 08:29:09;;;;;;;10.57;4.30;;;4.20;1.00;;;;;;5079781;28;20475;-62
2023/03/04 08:31:38;;;;;;;7.67;3.80;;;4.10;1.00;;;;;;5079813;28;20461;-64
2023/03/04 08:34:06;;;;;;;8.93;4.10;;;4.30;1.00;;;;;;5079430;28;20522;-63
2023/03/04 08:36:34;;;;;;;9.40;3.83;;;4.50;1.00;;;;;;5079620;28;20447;-63
2023/03/04 08:39:01;;;;;;;8.87;5.03;;;4.40;1.00;;;;;;5079939;28;20751;-63
2023/03/04 08:41:28;;;;;;;11.40;4.60;;;4.50;1.00;;;;;;5080103;28;20857;-63
2023/03/04 08:43:55;;;;;;;13.30;4.67;;;4.80;1.00;;;;;;5078861;28;20468;-63
2023/03/04 08:46:24;;;;;;;7.53;3.93;;;5.10;1.00;;;;;;5078120;28;20480;-62
2023/03/04 08:48:51;;;;;;;9.67;4.67;;;5.50;1.00;;;;;;5078134;28;20457;-63
2023/03/04 08:51:18;;;;;;;16.27;4.37;;;5.80;1.00;;;;;;5078121;28;20450;-63
2023/03/04 08:53:46;;;;;;;11.50;4.80;;;6.10;1.00;;;;;;5077758;28;20449;-63
2023/03/04 08:56:14;;;;;;;7.10;3.83;;;6.30;1.00;;;;;;5077827;28;20515;-63
2023/03/04 08:58:41;;;;;;;9.10;4.60;;;6.20;99.90;;;;;;5075076;28;20450;-63
2023/03/04 09:01:09;;;;;;;8.73;3.83;;;6.30;99.90;;;;;;5078123;28;20557;-63
2023/03/04 09:03:38;;;;;;;7.13;4.60;;;6.50;99.90;;;;;;5077216;28;20468;-62
2023/03/04 09:06:06;;;;;;;6.57;4.90;;;6.50;99.90;;;;;;5077508;28;20806;-63
2023/03/04 09:08:34;;;;;;;9.50;4.57;;;6.50;99.90;;;;;;5078017;28;20465;-59
2023/03/04 09:11:02;;;;;;;9.90;4.40;;;6.30;99.90;;;;;;5079203;28;20468;-63
2023/03/04 09:13:30;;;;;;;7.87;4.30;;;6.20;99.90;;;;;;5078404;28;20490;-62
2023/03/04 09:15:59;;;;;;;7.13;4.87;;;6.40;99.90;;;;;;5078030;28;20465;-61
2023/03/04 09:18:27;;;;;;;10.17;4.40;;;6.20;99.90;;;;;;5078075;28;20489;-63
2023/03/04 09:20:56;;;;;;;9.10;5.40;;;6.10;99.90;;;;;;5079122;28;20461;-63
2023/03/04 09:23:23;;;;;;;8.20;4.50;;;6.00;99.90;;;;;;5078799;28;20492;-63
2023/03/04 09:25:50;;;;;;;9.53;4.67;;;6.20;99.90;;;;;;5079362;28;20468;-62
2023/03/04 09:28:18;;;;;;;4.50;3.37;;;6.40;99.90;;;;;;5078682;28;20461;-62
2023/03/04 09:30:46;;;;;;;9.67;4.20;;;6.60;99.90;;;;;;5078918;28;20867;-63
2023/03/04 09:33:13;;;;;;;7.73;3.60;;;6.60;99.90;;;;;;5078699;28;20461;-61
2023/03/04 09:35:40;;;;;;;11.10;4.20;;;6.50;99.90;;;;;;5078787;28;20468;-61
2023/03/04 09:38:09;;;;;;;5.23;3.70;;;6.50;99.90;;;;;;5079181;28;20457;-62
2023/03/04 09:40:41;;;;;;;6.97;4.93;;;6.20;99.90;;;;;;5076330;28;20469;-61
2023/03/04 09:43:18;;;;;;;6.27;3.87;;;6.10;99.90;;;;;;5077851;28;20504;-60
2023/03/04 09:45:49;;;;;;;10.00;4.93;;;6.10;99.90;;;;;;5073410;28;20470;-61
2023/03/04 09:48:20;;;;;;;5.03;3.27;;;6.10;99.90;;;;;;5074985;28;20468;-62
2023/03/04 09:51:06;;;;;;;6.40;3.90;;;6.00;99.90;;;;;;5077186;28;20457;-64
2023/03/04 09:53:43;;;;;;;5.77;3.60;;;5.90;99.90;;;;;;5077135;28;20489;-63
2023/03/04 09:56:12;;;;;;;5.07;3.73;;;5.70;1.00;;;;;;5075776;28;20468;-63
2023/03/04 09:58:48;;;;;;;5.67;3.67;;;5.60;1.00;;;;;;5075438;28;20424;-64
2023/03/04 10:01:22;;;;;;;5.60;3.87;;;5.60;1.00;;;;;;5075194;28;20487;-64
2023/03/04 10:03:53;;;;;;;6.53;3.70;;;5.50;1.00;;;;;;5075301;28;20457;-64
2023/03/04 10:06:22;;;;;;;5.60;4.10;;;5.40;1.00;;;;;;5074213;28;20700;-62
2023/03/04 10:08:56;;;;;;;9.10;3.70;;;5.40;1.00;;;;;;5075319;28;20452;-63
2023/03/04 10:11:27;;;;;;;4.83;3.10;;;5.50;1.00;;;;;;5075426;28;20889;-61
2023/03/04 10:14:02;;;;;;;7.10;3.47;;;5.60;1.00;;;;;;5077200;28;20453;-62
2023/03/04 10:16:34;;;;;;;8.17;3.40;;;5.50;1.00;;;;;;5077990;28;20464;-63
2023/03/04 10:19:15;;;;;;;5.63;4.10;;;5.70;1.00;;;;;;5077351;28;20812;-60
2023/03/04 10:21:45;;;;;;;5.97;4.20;;;5.60;1.00;;;;;;5076289;28;20500;-61
2023/03/04 10:24:16;;;;;;;8.40;6.67;;;5.60;1.00;;;;;;5076292;28;20457;-63
2023/03/04 10:26:47;;;;;;;10.60;6.30;;;5.70;1.00;;;;;;5076903;28;20465;-63
2023/03/04 10:29:16;;;;;;;11.20;6.50;;;5.50;1.00;;;;;;5077317;28;20458;-62
2023/03/04 10:31:44;;;;;;;16.37;8.33;;;5.40;1.00;;;;;;5076611;28;20902;-63
2023/03/04 10:34:13;;;;;;;20.00;9.73;;;5.40;1.00;;;;;;5077117;28;20912;-63
2023/03/04 10:36:53;;;;;;;11.30;8.20;;;5.60;1.00;;;;;;5077883;28;20461;-63
2023/03/04 10:39:24;;;;;;;11.80;7.57;;;5.80;1.00;;;;;;5077467;28;20469;-63
2023/03/04 10:41:58;;;;;;;10.87;6.93;;;6.00;1.00;;;;;;5077964;28;20471;-63
2023/03/04 10:44:25;;;;;;;11.40;8.80;;;5.80;1.00;;;;;;5077699;28;20485;-63
2023/03/04 10:46:55;;;;;;;13.60;8.93;;;5.90;1.00;;;;;;5077651;28;20743;-62
2023/03/04 10:49:23;;;;;;;13.27;8.77;;;6.20;1.00;;;;;;5077471;28;20758;-63
2023/03/04 10:51:53;;;;;;;14.20;11.40;;;6.60;1.00;;;;;;5077796;28;20466;-60
2023/03/04 10:54:28;;;;;;;20.60;11.93;;;6.90;1.00;;;;;;5076996;28;20461;-60
2023/03/04 10:57:04;;;;;;;22.83;13.20;;;6.80;1.00;;;;;;5077169;28;20734;-61
2023/03/04 10:59:49;;;;;;;22.50;14.70;;;6.70;1.00;;;;;;5074924;28;20472;-60
2023/03/04 11:02:27;;;;;;;19.57;14.93;;;6.80;1.00;;;;;;5075879;28;20972;-59
2023/03/04 11:04:57;;;;;;;22.07;15.83;;;6.40;1.00;;;;;;5076661;28;20457;-61
2023/03/04 11:07:27;;;;;;;24.17;17.30;;;6.30;1.00;;;;;;5077105;28;20466;-59
2023/03/04 11:09:55;;;;;;;24.13;17.50;;;6.40;1.00;;;;;;5076823;28;20462;-61
2023/03/04 11:12:33;;;;;;;22.70;17.40;;;6.50;1.00;;;;;;5075190;28;20453;-60
2023/03/04 11:15:02;;;;;;;28.13;20.90;;;6.50;1.00;;;;;;5074185;28;20457;-60
2023/03/04 11:17:41;;;;;;;25.80;20.70;;;6.40;1.00;;;;;;5076448;28;20484;-59
2023/03/04 11:20:16;;;;;;;22.37;18.37;;;6.50;1.00;;;;;;5076233;28;20461;-59
2023/03/04 11:22:46;;;;;;;20.70;15.63;;;6.30;1.00;;;;;;5075648;28;20937;-58
2023/03/04 11:25:25;;;;;;;21.07;14.57;;;6.20;1.00;;;;;;5074675;28;20468;-59
2023/03/04 11:27:55;;;;;;;19.60;12.50;;;6.20;1.00;;;;;;5063243;28;20475;-61
2023/03/04 11:30:39;;;;;;;19.87;12.70;;;6.40;1.00;;;;;;5075671;28;20913;-61
2023/03/04 11:33:14;;;;;;;12.17;10.63;;;6.40;1.00;;;;;;5075626;28;20450;-58
2023/03/04 11:35:51;;;;;;;13.13;9.87;;;6.20;1.00;;;;;;5075416;28;20869;-62
2023/03/04 11:38:20;;;;;;;18.90;13.20;;;6.20;1.00;;;;;;5076927;28;20892;-63
2023/03/04 11:40:53;;;;;;;19.27;13.10;;;5.90;1.00;;;;;;5075977;28;20866;-63
2023/03/04 11:43:25;;;;;;;19.00;14.30;;;5.90;1.00;;;;;;5077089;28;20928;-61
2023/03/04 11:46:25;;;;;;;26.13;14.60;;;5.90;1.00;;;;;;5075834;28;20468;-63
2023/03/04 11:48:57;;;;;;;22.20;16.70;;;5.90;1.00;;;;;;5056754;28;20462;-62
2023/03/04 11:51:30;;;;;;;24.30;16.30;;;5.90;1.00;;;;;;5057001;28;20901;-63
2023/03/04 11:54:17;;;;;;;21.00;16.60;;;5.80;1.00;;;;;;5056875;28;20749;-63
2023/03/04 11:56:50;;;;;;;27.40;17.57;;;5.70;1.00;;;;;;5066747;28;20467;-62
2023/03/04 11:59:34;;;;;;;25.10;18.10;;;5.80;1.00;;;;;;5075073;28;20457;-61
2023/03/04 12:02:20;;;;;;;20.40;15.57;;;5.90;1.00;;;;;;5073727;28;20457;-62
2023/03/04 12:05:22;;;;;;;22.50;16.80;;;5.90;1.00;;;;;;5077806;28;20903;-63
2023/03/04 12:08:05;;;;;;;29.20;18.17;;;6.10;1.00;;;;;;5078757;28;20465;-63
2023/03/04 12:10:38;;;;;;;25.73;18.27;;;6.30;1.00;;;;;;5078518;28;20473;-63
2023/03/04 12:13:29;;;;;;;22.40;17.00;;;6.30;1.00;;;;;;5078724;28;20453;-63
2023/03/04 12:16:09;;;;;;;23.53;17.80;;;6.40;1.00;;;;;;5080443;28;20452;-61
2023/03/04 12:18:48;;;;;;;21.97;16.50;;;6.30;1.00;;;;;;5079819;28;20507;-63
2023/03/04 12:21:33;;;;;;;28.50;19.37;;;6.50;1.00;;;;;;5080394;28;20471;-63
2023/03/04 12:24:21;;;;;;;23.63;17.83;;;6.60;1.00;;;;;;5079874;28;20515;-61
2023/03/04 12:26:54;;;;;;;27.57;20.17;;;6.60;1.00;;;;;;5080075;28;20457;-60
2023/03/04 12:29:30;;;;;;;28.17;21.63;;;6.50;1.00;;;;;;5080313;28;20892;-60
2023/03/04 12:32:04;;;;;;;29.67;21.20;;;6.40;1.00;;;;;;5071584;28;20475;-60
2023/03/04 12:34:38;;;;;;;27.47;21.67;;;6.40;1.00;;;;;;5079230;28;20763;-59
2023/03/04 12:37:21;;;;;;;28.13;20.47;;;6.30;1.00;;;;;;5078988;28;20457;-62
2023/03/04 12:40:06;;;;;;;28.40;20.03;;;6.20;1.00;;;;;;5079105;28;20484;-62
2023/03/04 12:42:40;;;;;;;25.30;18.90;;;6.30;1.00;;;;;;5076903;28;20500;-62
2023/03/04 12:45:19;;;;;;;32.43;20.83;;;6.20;1.00;;;;;;5077155;28;20500;-63
2023/03/04 12:47:58;;;;;;;32.13;19.77;;;6.30;1.00;;;;;;5078244;28;20455;-63
2023/03/04 12:50:40;;;;;;;28.53;21.90;;;6.40;1.00;;;;;;5078201;28;20764;-64
2023/03/04 12:53:19;;;;;;;28.67;19.60;;;6.40;1.00;;;;;;5076927;28;20481;-63
2023/03/04 12:55:49;;;;;;;28.67;19.67;;;6.40;1.00;;;;;;5076420;28;20460;-64
2023/03/04 12:58:20;;;;;;;24.37;18.33;;;6.50;1.00;;;;;;5076438;28;20457;-64
2023/03/04 13:00:55;;;;;;;21.30;16.73;;;6.60;1.00;;;;;;5074270;28;20983;-63
2023/03/04 13:03:31;;;;;;;25.43;18.40;;;6.70;1.00;;;;;;5076462;28;20508;-63
2023/03/04 13:06:15;;;;;;;23.00;17.57;;;6.90;1.00;;;;;;5077610;28;20488;-64
2023/03/04 13:08:53;;;;;;;21.93;16.27;;;7.00;1.00;;;;;;5078768;28;20465;-64